Time;durP1;ratioP1;P1;durP2;ratioP2;P2;SDS_P1;SDS_P2;PMS_P1;PMS_P2;Temp;Humidity;BMP_temperature;BMP_pressure;BME280_temperature;BME280_humidity;BME280_pressure;Samples;Min_cycle;Max_cycle;Signal;HPM_P1;HPM_P2
2021/03/30 00:00:47;;;;;;;82.40;17.58;;;7.40;99.90;;;;;;5014527;28;20116;-79
2021/03/30 00:03:13;;;;;;;80.35;16.98;;;7.30;99.90;;;;;;5012856;28;20028;-79
2021/03/30 00:05:38;;;;;;;75.07;17.13;;;7.30;99.90;;;;;;5013565;28;20065;-79
2021/03/30 00:08:05;;;;;;;95.63;18.08;;;7.30;99.90;;;;;;5013005;28;20022;-79
2021/03/30 00:10:36;;;;;;;90.05;18.70;;;7.20;99.90;;;;;;5014258;28;20026;-79
2021/03/30 00:13:02;;;;;;;95.53;19.27;;;7.20;99.90;;;;;;5014203;28;20049;-79
2021/03/30 00:15:28;;;;;;;74.15;16.38;;;7.20;99.90;;;;;;5012917;28;20026;-79
2021/03/30 00:17:54;;;;;;;72.57;16.35;;;7.00;99.90;;;;;;5013269;28;20030;-78
2021/03/30 00:20:19;;;;;;;77.07;17.50;;;7.00;99.90;;;;;;5012608;28;20069;-79
2021/03/30 00:22:45;;;;;;;84.28;18.45;;;6.90;99.90;;;;;;5014040;28;20474;-79
2021/03/30 00:25:11;;;;;;;75.63;18.05;;;6.90;99.90;;;;;;5013003;28;20041;-79
2021/03/30 00:27:37;;;;;;;66.35;15.85;;;6.90;99.90;;;;;;5013821;28;20026;-79
2021/03/30 00:30:23;;;;;;;78.35;16.90;;;6.90;99.90;;;;;;5012654;28;20121;-78
2021/03/30 00:32:49;;;;;;;91.28;18.70;;;6.80;99.90;;;;;;5013399;28;20041;-79
2021/03/30 00:35:14;;;;;;;77.78;18.60;;;6.80;99.90;;;;;;5012840;28;20026;-78
2021/03/30 00:37:40;;;;;;;75.03;17.17;;;6.70;99.90;;;;;;5012238;28;20125;-78
2021/03/30 00:40:08;;;;;;;84.03;17.85;;;6.80;99.90;;;;;;5013751;28;20038;-78
2021/03/30 00:42:34;;;;;;;89.45;18.00;;;6.80;99.90;;;;;;5012414;28;20025;-79
2021/03/30 00:45:00;;;;;;;72.13;18.77;;;6.90;99.90;;;;;;5012632;28;20075;-78
2021/03/30 00:47:28;;;;;;;100.47;19.42;;;7.00;99.90;;;;;;5012053;28;20064;-78
2021/03/30 00:49:55;;;;;;;89.85;21.15;;;7.10;99.90;;;;;;5012095;28;20120;-79
2021/03/30 00:52:21;;;;;;;92.97;21.42;;;7.20;99.90;;;;;;5013590;28;20097;-79
2021/03/30 00:54:47;;;;;;;77.28;18.95;;;7.20;99.90;;;;;;5012553;28;20053;-79
2021/03/30 00:57:15;;;;;;;74.68;18.67;;;7.20;99.90;;;;;;5013284;28;20393;-79
2021/03/30 00:59:41;;;;;;;72.72;19.65;;;7.20;99.90;;;;;;5011119;28;20124;-79
2021/03/30 01:02:06;;;;;;;83.20;19.05;;;7.20;99.90;;;;;;5011981;28;20113;-79
2021/03/30 01:04:32;;;;;;;97.25;21.42;;;7.20;99.90;;;;;;5012209;28;20058;-78
2021/03/30 01:06:58;;;;;;;106.05;20.50;;;7.20;99.90;;;;;;5012953;28;20493;-79
2021/03/30 01:09:35;;;;;;;92.18;20.33;;;7.10;99.90;;;;;;5011740;28;20042;-79
2021/03/30 01:12:11;;;;;;;78.55;19.80;;;7.10;99.90;;;;;;5013154;28;20126;-79
2021/03/30 01:14:47;;;;;;;104.38;20.77;;;7.10;99.90;;;;;;5011034;28;20028;-78
2021/03/30 01:17:25;;;;;;;95.80;21.20;;;7.00;99.90;;;;;;5012622;28;20076;-79
2021/03/30 01:20:09;;;;;;;72.63;20.13;;;7.10;99.90;;;;;;5012742;28;20136;-79
2021/03/30 01:22:53;;;;;;;;;;;7.10;99.90;;;;;;5012036;28;20125;-79
2021/03/30 01:25:20;;;;;;;67.85;17.63;;;6.90;99.90;;;;;;5010618;28;20290;-79
2021/03/30 01:28:30;;;;;;;75.55;19.23;;;6.80;99.90;;;;;;5012550;28;20026;-79
2021/03/30 01:30:57;;;;;;;72.85;20.88;;;6.80;99.90;;;;;;5012415;28;20053;-79
2021/03/30 01:33:26;;;;;;;89.45;20.77;;;6.90;99.90;;;;;;5012176;28;20047;-79
2021/03/30 01:35:53;;;;;;;94.72;23.70;;;6.80;99.90;;;;;;5011883;28;20046;-79
2021/03/30 01:38:21;;;;;;;87.30;25.40;;;6.80;99.90;;;;;;5012585;28;20475;-79
2021/03/30 01:40:50;;;;;;;90.50;25.00;;;6.80;99.90;;;;;;5011462;28;20652;-78
2021/03/30 01:43:17;;;;;;;76.00;23.30;;;6.80;99.90;;;;;;5012166;28;20494;-79
2021/03/30 01:45:42;;;;;;;87.90;24.45;;;6.80;99.90;;;;;;5010308;28;20490;-79
2021/03/30 01:48:10;;;;;;;89.25;24.48;;;6.70;99.90;;;;;;5010793;28;20030;-79
2021/03/30 01:50:37;;;;;;;77.90;22.92;;;6.70;99.90;;;;;;4991406;28;20035;-78
2021/03/30 01:53:04;;;;;;;106.13;22.73;;;6.70;99.90;;;;;;4991565;28;20019;-79
2021/03/30 01:55:32;;;;;;;82.03;20.35;;;6.80;99.90;;;;;;4992022;28;20117;-79
2021/03/30 01:57:59;;;;;;;104.72;20.83;;;6.80;99.90;;;;;;4992230;28;20033;-79
2021/03/30 02:00:29;;;;;;;84.50;20.90;;;6.90;99.90;;;;;;5008291;28;20030;-79
2021/03/30 02:02:56;;;;;;;93.18;18.48;;;6.90;99.90;;;;;;5012241;28;20474;-79
2021/03/30 02:05:22;;;;;;;70.00;19.48;;;6.90;99.90;;;;;;5009748;28;20061;-79
2021/03/30 02:07:53;;;;;;;72.88;19.08;;;6.90;99.90;;;;;;5012002;28;20137;-79
2021/03/30 02:13:59;;;;;;;77.15;21.95;;;6.80;99.90;;;;;;5007179;28;20553;-79
2021/03/30 02:16:13;;;;;;;70.57;19.40;;;6.80;99.90;;;;;;5006188;28;20505;-79
2021/03/30 02:18:44;;;;;;;61.90;16.05;;;6.60;99.90;;;;;;5010502;28;20021;-79
2021/03/30 02:21:17;;;;;;;69.65;19.63;;;6.50;99.90;;;;;;5011088;28;20490;-79
2021/03/30 02:23:44;;;;;;;62.45;17.95;;;6.50;99.90;;;;;;5011284;28;20022;-79
2021/03/30 02:26:15;;;;;;;84.07;20.73;;;6.40;99.90;;;;;;5011371;28;20026;-79
2021/03/30 02:28:46;;;;;;;62.67;18.85;;;6.50;99.90;;;;;;5009000;28;20507;-79
2021/03/30 02:31:20;;;;;;;71.57;19.27;;;6.50;99.90;;;;;;5010054;28;20026;-79
2021/03/30 02:33:48;;;;;;;80.70;19.23;;;6.50;99.90;;;;;;5009601;28;20026;-79
2021/03/30 02:36:15;;;;;;;77.03;20.45;;;6.40;99.90;;;;;;5011624;28;20030;-78
2021/03/30 02:38:42;;;;;;;73.97;21.98;;;6.50;99.90;;;;;;5010473;28;20034;-78
2021/03/30 02:41:08;;;;;;;97.32;23.45;;;6.60;99.90;;;;;;5009848;28;20504;-79
2021/03/30 02:43:34;;;;;;;96.20;22.50;;;6.50;99.90;;;;;;5011438;28;20038;-79
2021/03/30 02:46:03;;;;;;;89.75;22.52;;;6.60;99.90;;;;;;5010841;28;20072;-79
2021/03/30 02:48:31;;;;;;;87.60;22.33;;;6.50;99.90;;;;;;5011197;28;20030;-78
2021/03/30 02:50:58;;;;;;;99.88;23.50;;;6.50;99.90;;;;;;5010195;28;20026;-79
2021/03/30 02:53:23;;;;;;;74.22;24.10;;;6.70;99.90;;;;;;5011662;28;20025;-79
2021/03/30 02:55:49;;;;;;;84.20;24.27;;;6.70;99.90;;;;;;5011069;28;20026;-79
2021/03/30 02:58:15;;;;;;;83.00;24.42;;;6.80;99.90;;;;;;5010276;28;20030;-79
2021/03/30 03:00:41;;;;;;;95.80;24.20;;;6.80;99.90;;;;;;5011236;28;20038;-79
2021/03/30 03:03:11;;;;;;;106.00;28.77;;;6.90;99.90;;;;;;5011730;28;20033;-79
2021/03/30 03:05:37;;;;;;;102.25;28.13;;;6.90;99.90;;;;;;5010975;28;20021;-79
2021/03/30 03:08:07;;;;;;;93.50;27.83;;;7.00;99.90;;;;;;5010092;28;20053;-79
2021/03/30 03:10:37;;;;;;;77.05;27.08;;;7.00;99.90;;;;;;5009494;28;20506;-79
2021/03/30 03:13:05;;;;;;;97.60;26.75;;;6.90;99.90;;;;;;5011433;28;20022;-79
2021/03/30 03:15:31;;;;;;;85.55;26.85;;;6.80;99.90;;;;;;5010722;28;20034;-79
2021/03/30 03:17:59;;;;;;;102.35;27.38;;;6.80;99.90;;;;;;5010043;28;20033;-79
2021/03/30 03:20:25;;;;;;;79.25;25.48;;;6.80;99.90;;;;;;5010331;28;20045;-79
2021/03/30 03:22:51;;;;;;;95.53;25.63;;;6.70;99.90;;;;;;5011447;28;20113;-79
2021/03/30 03:25:17;;;;;;;90.95;25.60;;;6.50;99.90;;;;;;5010836;28;20033;-80
2021/03/30 03:27:43;;;;;;;91.82;28.17;;;6.50;99.90;;;;;;5011176;28;20034;-80
2021/03/30 03:30:11;;;;;;;107.28;27.70;;;6.50;99.90;;;;;;5010960;28;20486;-79
2021/03/30 03:32:36;;;;;;;81.90;26.30;;;6.50;99.90;;;;;;5011240;28;20022;-79
2021/03/30 03:35:03;;;;;;;113.03;30.27;;;6.40;99.90;;;;;;5009007;28;20033;-78
2021/03/30 03:37:39;;;;;;;104.35;28.30;;;6.40;99.90;;;;;;5011203;28;20065;-78
2021/03/30 03:40:06;;;;;;;96.78;27.50;;;6.30;99.90;;;;;;5010866;28;20104;-79
2021/03/30 03:42:31;;;;;;;88.28;27.58;;;6.20;99.90;;;;;;5011226;28;20398;-79
2021/03/30 03:44:59;;;;;;;106.43;26.42;;;6.20;99.90;;;;;;5010483;28;20036;-79
2021/03/30 03:47:25;;;;;;;102.15;28.90;;;6.10;99.90;;;;;;5009701;28;20467;-79
2021/03/30 03:49:50;;;;;;;88.75;26.20;;;6.00;99.90;;;;;;5010939;28;20048;-79
2021/03/30 03:52:17;;;;;;;89.65;26.48;;;5.90;99.90;;;;;;5011142;28;20022;-79
2021/03/30 03:54:44;;;;;;;78.07;26.35;;;5.90;99.90;;;;;;5013887;28;20142;-79
2021/03/30 03:57:23;;;;;;;110.18;28.70;;;5.90;99.90;;;;;;5012878;28;20064;-78
2021/03/30 03:59:49;;;;;;;84.28;25.73;;;6.00;99.90;;;;;;5014278;28;20022;-79
2021/03/30 04:02:20;;;;;;;102.20;28.20;;;6.10;99.90;;;;;;5014443;28;20071;-79
2021/03/30 04:05:10;;;;;;;84.63;24.58;;;6.10;99.90;;;;;;5013388;28;20034;-79
2021/03/30 04:07:42;;;;;;;94.45;26.17;;;6.10;99.90;;;;;;5012996;28;20030;-79
2021/03/30 04:10:09;;;;;;;84.78;24.58;;;6.10;99.90;;;;;;5014306;28;20029;-79
2021/03/30 04:12:38;;;;;;;96.75;25.23;;;6.00;99.90;;;;;;5013086;28;20505;-79
2021/03/30 04:15:05;;;;;;;83.93;23.45;;;6.00;99.90;;;;;;5011823;28;20037;-80
2021/03/30 04:17:30;;;;;;;79.22;22.85;;;6.00;99.90;;;;;;5013990;28;20029;-79
2021/03/30 04:19:56;;;;;;;71.38;22.27;;;6.00;99.90;;;;;;5012552;28;20045;-79
2021/03/30 04:22:22;;;;;;;75.75;23.38;;;5.90;99.90;;;;;;5012478;28;20030;-79
2021/03/30 04:24:47;;;;;;;103.05;26.20;;;5.90;99.90;;;;;;5013413;28;20109;-79
2021/03/30 04:27:14;;;;;;;74.25;23.35;;;5.90;99.90;;;;;;5012566;28;20030;-79
2021/03/30 04:29:40;;;;;;;86.40;24.70;;;5.80;99.90;;;;;;5012665;28;20022;-79
2021/03/30 04:32:07;;;;;;;106.18;24.52;;;5.80;99.90;;;;;;5012370;28;20171;-79
2021/03/30 04:34:33;;;;;;;104.20;26.33;;;5.80;99.90;;;;;;5011210;28;20022;-78
2021/03/30 04:36:58;;;;;;;116.65;26.23;;;5.90;99.90;;;;;;5012508;28;20401;-79
2021/03/30 04:39:24;;;;;;;101.57;28.20;;;5.90;99.90;;;;;;5014038;28;20052;-78
2021/03/30 04:41:49;;;;;;;100.07;24.77;;;6.00;99.90;;;;;;5012375;28;20486;-79
2021/03/30 04:44:15;;;;;;;81.47;24.95;;;5.90;99.90;;;;;;5013038;28;20101;-79
2021/03/30 04:46:41;;;;;;;109.10;24.20;;;5.90;99.90;;;;;;5013408;28;20051;-78
2021/03/30 04:49:06;;;;;;;87.40;25.38;;;5.90;99.90;;;;;;5013109;28;20042;-79
2021/03/30 04:51:32;;;;;;;94.32;24.80;;;5.90;99.90;;;;;;5013585;28;20029;-79
2021/03/30 04:53:57;;;;;;;72.40;21.98;;;5.90;99.90;;;;;;5012890;28;20040;-79
2021/03/30 04:56:23;;;;;;;89.72;26.17;;;5.80;99.90;;;;;;5013443;28;20030;-78
2021/03/30 04:58:48;;;;;;;78.80;25.17;;;5.80;99.90;;;;;;5012005;28;20038;-79
2021/03/30 05:01:14;;;;;;;129.63;27.30;;;5.80;99.90;;;;;;5013379;28;20030;-79
2021/03/30 05:03:40;;;;;;;79.65;26.30;;;5.80;99.90;;;;;;5012246;28;20026;-79
2021/03/30 05:06:05;;;;;;;111.80;27.20;;;5.80;99.90;;;;;;5011725;28;20036;-79
2021/03/30 05:08:31;;;;;;;98.20;25.67;;;5.80;99.90;;;;;;5013145;28;20145;-79
2021/03/30 05:10:57;;;;;;;92.35;23.75;;;5.70;99.90;;;;;;5012857;28;20030;-79
2021/03/30 05:13:22;;;;;;;89.85;23.98;;;5.80;99.90;;;;;;5012005;28;20508;-79
2021/03/30 05:15:48;;;;;;;95.65;26.40;;;5.70;99.90;;;;;;5012420;28;20502;-79
2021/03/30 05:18:13;;;;;;;105.47;25.15;;;5.70;99.90;;;;;;5012628;28;20057;-79
2021/03/30 05:20:39;;;;;;;92.63;23.25;;;5.70;99.90;;;;;;5012942;28;20390;-79
2021/03/30 05:23:04;;;;;;;118.15;25.85;;;5.70;99.90;;;;;;5011705;28;20391;-79
2021/03/30 05:25:30;;;;;;;105.55;26.67;;;5.80;99.90;;;;;;5012271;28;20030;-79
2021/03/30 05:27:56;;;;;;;97.20;25.80;;;5.90;99.90;;;;;;5011475;28;20107;-79
2021/03/30 05:30:22;;;;;;;118.97;25.77;;;6.10;99.90;;;;;;5011339;28;20077;-79
2021/03/30 05:32:48;;;;;;;102.30;25.98;;;6.10;99.90;;;;;;5012451;28;20025;-79
2021/03/30 05:35:14;;;;;;;97.30;23.67;;;6.20;99.90;;;;;;5011845;28;20049;-79
2021/03/30 05:37:39;;;;;;;104.93;26.65;;;6.20;99.90;;;;;;5012399;28;20057;-79
2021/03/30 05:40:14;;;;;;;124.35;28.88;;;6.20;99.90;;;;;;5012364;28;20084;-78
2021/03/30 05:42:40;;;;;;;135.15;28.50;;;6.40;99.90;;;;;;5012655;28;20441;-79
2021/03/30 05:45:08;;;;;;;100.88;25.45;;;6.40;99.90;;;;;;5011781;28;20398;-79
2021/03/30 05:47:34;;;;;;;109.22;28.27;;;6.60;99.90;;;;;;5011027;28;20121;-79
2021/03/30 05:50:01;;;;;;;133.77;27.80;;;6.70;99.90;;;;;;5011852;28;20028;-79
2021/03/30 05:55:27;;;;;;;110.03;25.30;;;6.90;99.90;;;;;;5011836;28;20406;-78
2021/03/30 05:57:58;;;;;;;121.38;28.58;;;6.90;99.90;;;;;;5012201;28;20037;-79
2021/03/30 06:00:34;;;;;;;101.47;26.10;;;7.00;99.90;;;;;;5012014;28;20030;-79
2021/03/30 06:03:08;;;;;;;131.05;27.27;;;7.00;99.90;;;;;;5011038;28;20025;-79
2021/03/30 06:05:35;;;;;;;109.43;26.63;;;7.10;99.90;;;;;;5010259;28;20038;-79
2021/03/30 06:08:02;;;;;;;93.97;24.33;;;7.10;99.90;;;;;;5012065;28;20494;-79
2021/03/30 06:10:30;;;;;;;82.03;22.85;;;7.10;99.90;;;;;;5010493;28;20029;-79
2021/03/30 06:12:57;;;;;;;110.50;26.13;;;7.10;99.90;;;;;;5010856;28;20028;-79
2021/03/30 06:15:30;;;;;;;100.50;24.63;;;7.20;99.90;;;;;;5009487;28;20022;-79
2021/03/30 06:17:56;;;;;;;113.45;23.92;;;7.30;99.90;;;;;;5012075;28;20102;-79
2021/03/30 06:20:25;;;;;;;111.80;25.75;;;7.40;99.90;;;;;;5011640;28;20056;-80
2021/03/30 06:22:54;;;;;;;93.90;23.33;;;7.40;99.90;;;;;;5011888;28;20034;-79
2021/03/30 06:25:50;;;;;;;101.90;23.98;;;7.60;99.90;;;;;;5011235;28;20075;-79
2021/03/30 06:28:26;;;;;;;93.93;23.40;;;7.70;99.90;;;;;;5011979;28;20030;-79
2021/03/30 06:31:15;;;;;;;111.75;25.95;;;7.80;99.90;;;;;;5011379;28;20037;-78
2021/03/30 06:33:58;;;;;;;109.22;24.90;;;7.90;99.90;;;;;;4995912;28;20596;-78
2021/03/30 06:36:25;;;;;;;88.63;23.08;;;8.00;99.90;;;;;;5010896;28;20048;-78
2021/03/30 06:38:52;;;;;;;79.53;21.63;;;8.10;99.90;;;;;;5011557;28;20466;-78
2021/03/30 06:44:25;;;;;;;80.55;21.55;;;8.30;99.90;;;;;;5011388;28;20113;-79
2021/03/30 06:46:54;;;;;;;96.53;22.40;;;8.40;99.90;;;;;;5010367;28;20030;-79
2021/03/30 06:49:21;;;;;;;82.47;21.38;;;8.50;99.90;;;;;;5011370;28;20026;-79
2021/03/30 06:51:48;;;;;;;92.95;21.35;;;8.60;99.90;;;;;;5011683;28;20026;-79
2021/03/30 06:54:14;;;;;;;94.43;22.30;;;8.80;99.90;;;;;;5009773;28;20022;-79
2021/03/30 06:56:54;;;;;;;59.83;18.73;;;8.90;99.90;;;;;;5010375;28;20022;-78
2021/03/30 06:59:21;;;;;;;80.60;19.75;;;9.00;99.90;;;;;;5011295;28;20030;-78
2021/03/30 07:01:51;;;;;;;84.55;20.80;;;9.20;99.90;;;;;;5009753;28;20038;-79
2021/03/30 07:04:18;;;;;;;86.13;19.77;;;9.30;99.90;;;;;;5010100;28;20034;-79
2021/03/30 07:06:50;;;;;;;78.15;18.98;;;9.50;99.90;;;;;;5011244;28;20060;-79
2021/03/30 07:09:16;;;;;;;60.13;17.25;;;9.60;99.90;;;;;;5010929;28;20364;-79
2021/03/30 07:11:42;;;;;;;71.60;17.75;;;9.70;99.90;;;;;;5011354;28;20022;-80
2021/03/30 07:14:08;;;;;;;65.95;18.27;;;9.80;99.90;;;;;;5010648;28;20544;-79
2021/03/30 07:17:01;;;;;;;57.25;16.10;;;9.90;99.90;;;;;;5010147;28;20026;-78
2021/03/30 07:19:31;;;;;;;61.65;17.10;;;10.00;99.90;;;;;;5010601;28;20045;-79
2021/03/30 07:22:12;;;;;;;68.35;15.55;;;10.10;99.90;;;;;;5011282;28;20109;-79
2021/03/30 07:25:02;;;;;;;59.45;14.63;;;10.20;99.90;;;;;;5004966;28;20083;-79
2021/03/30 07:27:31;;;;;;;52.85;14.10;;;10.40;99.90;;;;;;4997713;28;20414;-80
2021/03/30 07:29:59;;;;;;;74.82;15.50;;;10.40;99.90;;;;;;5010666;28;20041;-80
2021/03/30 07:32:47;;;;;;;62.42;14.95;;;10.60;99.90;;;;;;5011937;28;20034;-79
2021/03/30 07:35:16;;;;;;;65.43;14.88;;;10.60;99.90;;;;;;5010783;28;20053;-79
2021/03/30 07:38:02;;;;;;;60.92;15.30;;;10.80;99.90;;;;;;5010416;28;20083;-79
2021/03/30 07:40:28;;;;;;;57.17;15.85;;;10.80;99.90;;;;;;5010286;28;20037;-79
2021/03/30 07:42:56;;;;;;;60.50;15.70;;;10.80;99.90;;;;;;5010347;28;21357;-79
2021/03/30 07:45:25;;;;;;;69.82;16.15;;;11.00;99.90;;;;;;5009509;28;20038;-79
2021/03/30 07:47:51;;;;;;;55.78;14.27;;;11.00;99.90;;;;;;5014496;28;20068;-79
2021/03/30 07:50:21;;;;;;;59.08;13.75;;;11.10;99.90;;;;;;5014240;28;20108;-79
2021/03/30 07:52:50;;;;;;;52.63;14.02;;;11.30;99.90;;;;;;5013336;28;20029;-78
2021/03/30 07:55:20;;;;;;;51.08;13.45;;;11.40;99.90;;;;;;5013982;28;20045;-79
2021/03/30 07:58:06;;;;;;;64.22;16.05;;;11.50;99.90;;;;;;5014413;28;20091;-78
2021/03/30 08:00:31;;;;;;;59.33;13.25;;;11.60;99.90;;;;;;5012854;28;20171;-78
2021/03/30 08:03:02;;;;;;;55.88;11.57;;;11.80;99.90;;;;;;5014467;28;20034;-78
2021/03/30 08:05:28;;;;;;;59.13;13.90;;;11.90;99.90;;;;;;5012115;28;20402;-78
2021/03/30 08:07:58;;;;;;;48.42;13.48;;;12.00;99.90;;;;;;5014204;28;20030;-78
2021/03/30 08:10:35;;;;;;;61.15;13.18;;;12.20;99.90;;;;;;5012255;28;20060;-78
2021/03/30 08:13:27;;;;;;;59.03;13.25;;;12.40;99.90;;;;;;5011701;28;20505;-79
2021/03/30 08:15:54;;;;;;;45.63;11.93;;;12.50;99.90;;;;;;5004944;28;20500;-79
2021/03/30 08:18:21;;;;;;;53.67;11.52;;;12.60;99.90;;;;;;5018013;28;20025;-79
2021/03/30 08:21:02;;;;;;;40.00;12.55;;;12.60;99.90;;;;;;5012679;28;20486;-80
2021/03/30 08:23:29;;;;;;;45.95;11.77;;;12.90;99.90;;;;;;5012566;28;20030;-79
2021/03/30 08:26:28;;;;;;;48.47;11.48;;;13.00;99.90;;;;;;5013245;28;20026;-78
2021/03/30 08:29:06;;;;;;;50.20;11.07;;;13.10;99.90;;;;;;5013744;28;20105;-79
2021/03/30 08:31:36;;;;;;;42.55;10.93;;;13.10;99.90;;;;;;5012480;28;20033;-79
2021/03/30 08:34:05;;;;;;;48.50;11.50;;;13.10;99.90;;;;;;5011818;28;20105;-79
2021/03/30 08:36:33;;;;;;;41.65;11.18;;;13.30;99.90;;;;;;5013980;28;20030;-79
2021/03/30 08:39:07;;;;;;;48.42;11.93;;;13.40;99.90;;;;;;5012580;28;20036;-79
2021/03/30 08:41:42;;;;;;;;;;;13.40;99.90;;;;;;5011921;28;20041;-79
2021/03/30 08:44:19;;;;;;;40.80;10.43;;;13.40;99.90;;;;;;5011639;28;19944;-79
2021/03/30 08:46:50;;;;;;;43.38;10.45;;;13.30;99.90;;;;;;5013411;28;20033;-79
2021/03/30 08:49:41;;;;;;;34.83;11.07;;;13.30;99.90;;;;;;5011753;28;20499;-79
2021/03/30 08:52:13;;;;;;;69.43;12.07;;;13.30;99.90;;;;;;5013230;28;20541;-79
2021/03/30 08:54:53;;;;;;;44.08;11.30;;;13.40;99.90;;;;;;5011170;28;20041;-78
2021/03/30 08:57:32;;;;;;;49.05;10.90;;;13.50;99.90;;;;;;5012142;28;20034;-78
2021/03/30 08:59:59;;;;;;;44.33;10.93;;;13.50;99.90;;;;;;5007163;28;20061;-77
2021/03/30 09:02:26;;;;;;;48.13;12.02;;;13.60;99.90;;;;;;5010406;28;20034;-78
2021/03/30 09:04:53;;;;;;;44.35;12.88;;;13.70;99.90;;;;;;5009279;28;20034;-79
2021/03/30 09:07:19;;;;;;;35.50;10.68;;;13.70;99.90;;;;;;5008604;28;20034;-79
2021/03/30 09:09:46;;;;;;;42.15;12.10;;;13.70;99.90;;;;;;5009347;28;20028;-78
2021/03/30 09:12:20;;;;;;;33.35;11.68;;;13.80;99.90;;;;;;5007706;28;20029;-78
2021/03/30 09:15:01;;;;;;;36.58;10.60;;;13.80;99.90;;;;;;5012436;28;20025;-77
2021/03/30 09:17:28;;;;;;;37.75;11.38;;;13.90;99.90;;;;;;5013052;28;20065;-79
2021/03/30 09:19:53;;;;;;;47.40;11.70;;;14.00;99.90;;;;;;5011211;28;20477;-79
2021/03/30 09:22:36;;;;;;;31.73;11.38;;;14.30;99.90;;;;;;5012834;28;20034;-79
2021/03/30 09:25:24;;;;;;;40.22;11.73;;;14.40;99.90;;;;;;5010663;28;20025;-77
2021/03/30 09:27:50;;;;;;;42.05;11.70;;;14.50;99.90;;;;;;5012809;28;20028;-78
2021/03/30 09:30:18;;;;;;;33.47;10.73;;;14.50;99.90;;;;;;5012343;28;20445;-77
2021/03/30 09:32:45;;;;;;;48.45;12.40;;;14.30;99.90;;;;;;5012623;28;20034;-77
2021/03/30 09:35:23;;;;;;;36.88;10.95;;;14.40;99.90;;;;;;5012063;28;20410;-78
2021/03/30 09:38:01;;;;;;;34.63;11.68;;;14.50;99.90;;;;;;5012625;28;20521;-78
2021/03/30 09:40:34;;;;;;;44.83;11.75;;;14.60;99.90;;;;;;5010279;28;20117;-79
2021/03/30 09:43:04;;;;;;;43.28;12.50;;;14.50;99.90;;;;;;5012387;28;20029;-78
2021/03/30 09:45:33;;;;;;;41.70;12.70;;;14.50;99.90;;;;;;5010660;28;20064;-77
2021/03/30 09:48:02;;;;;;;43.40;12.07;;;14.70;99.90;;;;;;5010822;28;20406;-78
2021/03/30 09:50:28;;;;;;;46.83;13.05;;;14.70;99.90;;;;;;5010315;28;20084;-77
2021/03/30 09:53:01;;;;;;;49.22;12.45;;;14.90;99.90;;;;;;5008945;28;20109;-78
2021/03/30 09:55:30;;;;;;;41.53;11.95;;;14.90;99.90;;;;;;5007005;28;20022;-78
2021/03/30 09:58:01;;;;;;;32.65;11.32;;;15.10;99.90;;;;;;5006548;28;20128;-78
2021/03/30 10:00:28;;;;;;;44.78;12.52;;;15.00;99.90;;;;;;5009482;28;20034;-78
2021/03/30 10:02:54;;;;;;;35.90;11.60;;;15.00;99.90;;;;;;5009230;28;20029;-78
2021/03/30 10:05:19;;;;;;;51.97;13.63;;;14.80;99.90;;;;;;5008910;28;20030;-77
2021/03/30 10:07:45;;;;;;;38.60;11.77;;;14.70;99.90;;;;;;5007846;28;20026;-78
2021/03/30 10:10:13;;;;;;;40.95;11.77;;;14.90;99.90;;;;;;5008613;28;20022;-79
2021/03/30 10:12:59;;;;;;;32.75;12.20;;;14.90;99.90;;;;;;5008725;28;20033;-79
2021/03/30 10:15:36;;;;;;;38.53;11.93;;;15.10;99.90;;;;;;5000637;28;20052;-79
2021/03/30 10:18:04;;;;;;;44.10;13.15;;;15.10;99.90;;;;;;5006218;28;20092;-79
2021/03/30 10:20:30;;;;;;;44.78;12.43;;;15.10;99.90;;;;;;5006752;28;20037;-79
2021/03/30 10:22:56;;;;;;;31.13;11.10;;;15.20;99.90;;;;;;5008331;28;20030;-79
2021/03/30 10:25:27;;;;;;;33.25;11.55;;;15.20;99.90;;;;;;5007673;28;20034;-78
2021/03/30 10:27:57;;;;;;;48.65;12.68;;;15.10;99.90;;;;;;5007115;28;20045;-78
2021/03/30 10:30:33;;;;;;;45.22;12.18;;;15.10;99.90;;;;;;5007033;28;20030;-78
2021/03/30 10:33:00;;;;;;;47.20;14.00;;;15.20;99.90;;;;;;5006956;28;20084;-78
2021/03/30 10:35:26;;;;;;;44.97;12.23;;;15.20;99.90;;;;;;5006537;28;20575;-78
2021/03/30 10:37:52;;;;;;;50.67;12.18;;;15.30;99.90;;;;;;5006911;28;20137;-79
2021/03/30 10:40:18;;;;;;;33.78;11.98;;;15.30;99.90;;;;;;5006860;28;20494;-79
2021/03/30 10:42:44;;;;;;;31.40;10.88;;;15.50;99.90;;;;;;5006741;28;20088;-78
2021/03/30 10:45:12;;;;;;;31.63;10.60;;;15.50;99.90;;;;;;5007620;28;20072;-79
2021/03/30 10:47:40;;;;;;;28.10;10.52;;;15.30;99.90;;;;;;5008181;28;20080;-78
2021/03/30 10:50:12;;;;;;;43.13;12.25;;;15.20;99.90;;;;;;5005707;28;20488;-78
2021/03/30 10:52:39;;;;;;;42.60;12.77;;;15.30;99.90;;;;;;5008242;28;20030;-78
2021/03/30 10:55:23;;;;;;;37.28;11.55;;;15.40;99.90;;;;;;5007495;28;20524;-79
2021/03/30 10:57:48;;;;;;;34.78;11.80;;;15.50;99.90;;;;;;5003937;28;20030;-79
2021/03/30 11:00:17;;;;;;;36.05;12.32;;;15.60;99.90;;;;;;5007070;28;20034;-79
2021/03/30 11:02:43;;;;;;;26.67;11.52;;;15.40;99.90;;;;;;5012070;28;20556;-78
2021/03/30 11:05:09;;;;;;;38.38;11.10;;;15.40;99.90;;;;;;5009983;28;20041;-78
2021/03/30 11:07:35;;;;;;;35.58;10.98;;;15.30;99.90;;;;;;5010850;28;20065;-78
2021/03/30 11:10:01;;;;;;;37.17;11.95;;;15.30;99.90;;;;;;5011867;28;20060;-77
2021/03/30 11:12:27;;;;;;;35.05;12.13;;;15.30;99.90;;;;;;5010877;28;20080;-77
2021/03/30 11:14:53;;;;;;;42.53;12.73;;;15.10;99.90;;;;;;5011042;28;20030;-77
2021/03/30 11:17:18;;;;;;;35.10;12.95;;;15.10;99.90;;;;;;5010789;28;20045;-77
2021/03/30 11:19:44;;;;;;;31.13;11.38;;;15.20;99.90;;;;;;5011999;28;20117;-78
2021/03/30 11:22:10;;;;;;;31.55;10.95;;;15.30;99.90;;;;;;5009901;28;20026;-78
2021/03/30 11:24:40;;;;;;;33.10;10.73;;;15.30;99.90;;;;;;5010997;28;20025;-78
2021/03/30 11:27:07;;;;;;;35.67;11.68;;;15.40;99.90;;;;;;5010524;28;20033;-77
2021/03/30 11:35:01;;;;;;;37.90;11.43;;;15.70;99.90;;;;;;4988082;28;20069;-77
2021/03/30 11:39:54;;;;;;;33.55;10.00;;;15.90;99.90;;;;;;5013909;28;20057;-78
2021/03/30 11:42:19;;;;;;;38.80;11.45;;;15.80;99.90;;;;;;5013617;28;20108;-78
2021/03/30 11:44:45;;;;;;;35.10;11.13;;;16.00;99.90;;;;;;5014234;28;20088;-77
2021/03/30 11:47:11;;;;;;;27.90;11.15;;;16.20;99.90;;;;;;5013847;28;20038;-78
2021/03/30 11:49:37;;;;;;;24.13;10.25;;;16.50;99.90;;;;;;5014747;28;20052;-77
2021/03/30 11:52:05;;;;;;;30.77;11.15;;;16.70;99.90;;;;;;5013091;28;20109;-78
2021/03/30 11:54:31;;;;;;;28.52;10.60;;;16.80;99.90;;;;;;5009813;28;20037;-77
2021/03/30 11:56:57;;;;;;;27.77;9.82;;;16.60;99.90;;;;;;5008561;28;20047;-78
2021/03/30 11:59:23;;;;;;;30.85;11.40;;;16.50;99.90;;;;;;5011540;28;20026;-78
2021/03/30 12:01:49;;;;;;;28.85;10.90;;;16.60;99.90;;;;;;5010073;28;20026;-77
2021/03/30 12:04:14;;;;;;;31.23;10.95;;;16.70;99.90;;;;;;5008964;28;20026;-77
2021/03/30 12:06:40;;;;;;;31.65;11.40;;;16.80;99.90;;;;;;5009587;28;20034;-77
2021/03/30 12:09:07;;;;;;;33.65;11.25;;;16.70;99.90;;;;;;5010902;28;20030;-77
2021/03/30 12:11:33;;;;;;;34.08;11.45;;;16.80;99.90;;;;;;5008639;28;20038;-77
2021/03/30 12:14:00;;;;;;;29.45;10.70;;;16.90;99.90;;;;;;5009418;28;20114;-78
2021/03/30 12:16:26;;;;;;;24.73;10.27;;;17.00;99.90;;;;;;5009266;28;20030;-77
2021/03/30 12:18:51;;;;;;;31.77;9.60;;;17.00;99.90;;;;;;5013861;28;20736;-77
2021/03/30 12:21:19;;;;;;;22.63;9.88;;;17.00;99.90;;;;;;5012905;28;20174;-77
2021/03/30 12:23:44;;;;;;;28.50;11.07;;;17.20;99.90;;;;;;5012289;28;20084;-77
2021/03/30 12:26:10;;;;;;;26.50;9.48;;;17.30;99.90;;;;;;5013663;28;20030;-78
2021/03/30 12:28:35;;;;;;;28.73;10.18;;;17.70;99.90;;;;;;5013845;28;20026;-78
2021/03/30 12:31:01;;;;;;;27.63;9.80;;;17.50;99.90;;;;;;5012657;28;20034;-76
2021/03/30 12:33:26;;;;;;;27.63;11.88;;;17.80;99.90;;;;;;5013785;28;20022;-76
2021/03/30 12:35:52;;;;;;;30.10;10.40;;;18.00;99.90;;;;;;5012908;28;20030;-76
2021/03/30 12:38:18;;;;;;;28.85;10.07;;;17.90;99.90;;;;;;5013967;28;20034;-77
2021/03/30 12:40:43;;;;;;;31.67;9.50;;;17.90;99.90;;;;;;5013580;28;20512;-78
2021/03/30 12:43:10;;;;;;;38.17;10.57;;;18.00;99.90;;;;;;5013804;28;20036;-79
2021/03/30 12:45:36;;;;;;;28.70;11.43;;;18.60;99.90;;;;;;5012897;28;20033;-78
2021/03/30 12:48:03;;;;;;;35.65;11.68;;;18.70;99.90;;;;;;5011495;28;20037;-78
2021/03/30 12:50:29;;;;;;;31.23;11.35;;;18.50;99.90;;;;;;5013358;28;20025;-78
2021/03/30 12:52:55;;;;;;;36.00;10.43;;;18.20;99.90;;;;;;5012276;28;20025;-78
2021/03/30 12:55:21;;;;;;;34.10;11.63;;;18.10;99.90;;;;;;5012571;28;20129;-77
2021/03/30 12:57:47;;;;;;;29.75;9.70;;;17.40;99.90;;;;;;5012158;28;20117;-76